Share

Al Dawadmi, Saudi Arabia

Al Dawadmi (OEDM) Elev 3025 ft | 24.45 °N, 44.12 °E | Change Station

Current weather conditions updated 1 hour ago

Clear
Clear
95 °F
Feels Like 95 °F
N
7
Wind Variable Wind from ESE
Sunrise 5:39 AM
Sunset 6:26 PM
Moon Waning Gibbous

Today is forecast to be nearly the same temperature as yesterday.

Pressure 30.01 in
Visibility -9999.0 miles
Clouds
Dew Point 32 °F
Humidity 11%
Rainfall 0.00 in
Snow Depth Not available.
UV Not available.
Pollen Not available.
Air Quality Not available.
Flu Activity Not available.
METAR OEDM 180700Z 11006KT CAVOK 35/00 Q1016

More Conditions Fewer Conditions

Pressure 30.01 in
Visibility -9999.0 miles
Clouds
Dew Point 32 °F
Humidity 11%
Rainfall 0.00 in
Snow Depth Not available.
UV Not available.
Pollen Not available.
Air Quality Not available.
Flu Activity Not available.
METAR OEDM 180700Z 11006KT CAVOK 35/00 Q1016

More Conditions Fewer Conditions

10-Day Forecast

Almanac

Astronomy

Apr. 18, 2014 Rise Set
Actual Time 5:39 AM AST 6:26 PM AST
Civil Twilight 5:16 AM AST 6:50 PM AST
Nautical Twilight 4:48 AM AST 7:17 PM AST
Astronomical Twilight 4:20 AM AST 7:45 PM AST
Moon 9:36 PM AST 7:54 AM AST
Length of Visible Light 13h 34m
Length of Day
12h 47m
Tomorrow will be 1m 19s longer.
Waning Gibbous, 89% of the Moon is Illuminated
Today
Waning Gibbous
Apr 22
Last Quarter
Apr 29
New
May 6
First Quarter
May 14
Full

Yesterday's Extremes

Country Highs Country Lows

Community

  • SUNRISE THROUGH THE TREES.
    SUNRISE THROUGH THE TREES.
  • Dog Wood Blossoms
    Dog Wood Blossoms
  • Morning Light
    Morning Light
  • New Day
    New Day
  • Lake Michigan Sunrise
    Lake Michigan Sunrise

WunderPhotos

Upload Photos

1,702,279 photos uploaded!

WunderBlogs® & News

Nearby

Snow Depth

Not available.

Coastal Water Temperatures

Place Temperature
No Stations Reporting

Earthquake Activity

City Distance Mag. Time & Date
No recent earthquake activity has been reported nearby.
Minimum magnitude displayed is 2.5.

Nearby Weather Stations

There are no personal weather stations in this area.

What do you think?

We're not finished. Please let us know what you like, what you don't like, and what you are still missing.